SKW6314 KTUS-KPHX
Flight info
| Callsign | SKW6314 |
|---|---|
| Flight time | 0h 22m |
| Altitude | 20000 |
| Route | BURRO5 HOTTT PINNG1 |
| Aircraft | CRJ7/M-SDFGIRWY/S |
Departure
| Time | 2026-05-08 06:57 |
|---|---|
| Airport | Tucson International Airport (KTUS) |
Arrival
| Time | 2026-05-08 07:20 |
|---|---|
| Airport | Phoenix Sky Harbor International Airport (KPHX) |
| Time | Latitude | Longitude | Altitude | Speed | Heading |
|---|---|---|---|---|---|
| 2026-05-08 06:33 | 32.12103 | -110.94026 | 2591 ft | 0 kts | 82° |
| 2026-05-08 06:50 | 32.12103 | -110.94029 | 2591 ft | 2 kts | 82° |
| 2026-05-08 06:51 | 32.12100 | -110.94060 | 2586 ft | 4 kts | 90° |
| 2026-05-08 06:51 | 32.12103 | -110.94087 | 2585 ft | 1 kts | 103° |
| 2026-05-08 06:51 | 32.12103 | -110.94088 | 2591 ft | 0 kts | 103° |
| 2026-05-08 06:53 | 32.12103 | -110.94087 | 2591 ft | 0 kts | 109° |
| 2026-05-08 06:53 | 32.12103 | -110.94086 | 2591 ft | 0 kts | 120° |
| 2026-05-08 06:54 | 32.12091 | -110.94071 | 2591 ft | 4 kts | 155° |
| 2026-05-08 06:54 | 32.12037 | -110.94082 | 2584 ft | 13 kts | 228° |
| 2026-05-08 06:54 | 32.12012 | -110.94166 | 2588 ft | 9 kts | 315° |
| 2026-05-08 06:54 | 32.12086 | -110.94253 | 2586 ft | 21 kts | 315° |
| 2026-05-08 06:55 | 32.12194 | -110.94379 | 2580 ft | 21 kts | 316° |
| 2026-05-08 06:55 | 32.12291 | -110.94493 | 2578 ft | 20 kts | 316° |
| 2026-05-08 06:55 | 32.12382 | -110.94614 | 2569 ft | 13 kts | 283° |
| 2026-05-08 06:55 | 32.12373 | -110.94649 | 2568 ft | 4 kts | 224° |
| 2026-05-08 06:56 | 32.12325 | -110.94705 | 2568 ft | 9 kts | 221° |
| 2026-05-08 06:56 | 32.12297 | -110.94717 | 2573 ft | 3 kts | 189° |
| 2026-05-08 06:56 | 32.12261 | -110.94700 | 2574 ft | 16 kts | 137° |
| 2026-05-08 06:56 | 32.12006 | -110.94404 | 2583 ft | 90 kts | 136° |
| 2026-05-08 06:57 | 32.11389 | -110.93684 | 2611 ft | 155 kts | 137° |
| 2026-05-08 06:57 | 32.10557 | -110.92718 | 3092 ft | 177 kts | 136° |
| 2026-05-08 06:57 | 32.09615 | -110.91631 | 3702 ft | 205 kts | 135° |
| 2026-05-08 06:57 | 32.08520 | -110.90377 | 3987 ft | 243 kts | 136° |
| 2026-05-08 06:58 | 32.07345 | -110.88773 | 4637 ft | 269 kts | 117° |
| 2026-05-08 06:58 | 32.06981 | -110.86584 | 5585 ft | 277 kts | 80° |
| 2026-05-08 06:58 | 32.07696 | -110.84558 | 6759 ft | 271 kts | 47° |
| 2026-05-08 06:58 | 32.09236 | -110.83334 | 7875 ft | 270 kts | 14° |
| 2026-05-08 06:59 | 32.11102 | -110.83331 | 8936 ft | 275 kts | 346° |
| 2026-05-08 06:59 | 32.12964 | -110.83975 | 9968 ft | 282 kts | 342° |
| 2026-05-08 06:59 | 32.14843 | -110.84751 | 10800 ft | 295 kts | 341° |
| 2026-05-08 06:59 | 32.16837 | -110.85660 | 11342 ft | 316 kts | 340° |
| 2026-05-08 07:00 | 32.18927 | -110.86672 | 11963 ft | 334 kts | 339° |
| 2026-05-08 07:00 | 32.21101 | -110.87769 | 12768 ft | 344 kts | 338° |
| 2026-05-08 07:00 | 32.23311 | -110.88913 | 13716 ft | 349 kts | 339° |
| 2026-05-08 07:00 | 32.25558 | -110.90055 | 14532 ft | 353 kts | 340° |
| 2026-05-08 07:01 | 32.27821 | -110.91154 | 15286 ft | 358 kts | 340° |
| 2026-05-08 07:01 | 32.30139 | -110.92295 | 16020 ft | 364 kts | 338° |
| 2026-05-08 07:01 | 32.32342 | -110.93833 | 16735 ft | 372 kts | 326° |
| 2026-05-08 07:01 | 32.34379 | -110.95758 | 17435 ft | 378 kts | 322° |
| 2026-05-08 07:02 | 32.36409 | -110.97778 | 18148 ft | 380 kts | 322° |
| 2026-05-08 07:02 | 32.38458 | -110.99800 | 18750 ft | 385 kts | 323° |
| 2026-05-08 07:02 | 32.40514 | -111.01841 | 19329 ft | 389 kts | 323° |
| 2026-05-08 07:02 | 32.42610 | -111.03928 | 19659 ft | 399 kts | 325° |
| 2026-05-08 07:03 | 32.44889 | -111.05914 | 19820 ft | 413 kts | 327° |
| 2026-05-08 07:03 | 32.47269 | -111.07935 | 19895 ft | 430 kts | 327° |
| 2026-05-08 07:03 | 32.49657 | -111.10056 | 19934 ft | 446 kts | 325° |
| 2026-05-08 07:03 | 32.52142 | -111.12368 | 19965 ft | 436 kts | 325° |
| 2026-05-08 07:04 | 32.54468 | -111.14562 | 19964 ft | 420 kts | 324° |
| 2026-05-08 07:04 | 32.56698 | -111.16697 | 19984 ft | 415 kts | 324° |
| 2026-05-08 07:04 | 32.58954 | -111.18835 | 19586 ft | 418 kts | 325° |
| 2026-05-08 07:04 | 32.61255 | -111.20976 | 19113 ft | 423 kts | 325° |
| 2026-05-08 07:05 | 32.63578 | -111.23140 | 18637 ft | 426 kts | 324° |
| 2026-05-08 07:05 | 32.65907 | -111.25306 | 18158 ft | 417 kts | 324° |
| 2026-05-08 07:05 | 32.68112 | -111.27370 | 17606 ft | 391 kts | 324° |
| 2026-05-08 07:05 | 32.70193 | -111.29313 | 17068 ft | 371 kts | 324° |
| 2026-05-08 07:06 | 32.72212 | -111.31192 | 16539 ft | 366 kts | 324° |
| 2026-05-08 07:06 | 32.73552 | -111.32446 | 16188 ft | 362 kts | 324° |
| 2026-05-08 07:06 | 32.75553 | -111.34316 | 15689 ft | 370 kts | 324° |
| 2026-05-08 07:06 | 32.77520 | -111.36159 | 15156 ft | 356 kts | 324° |
| 2026-05-08 07:07 | 32.79465 | -111.37970 | 14649 ft | 354 kts | 324° |
| 2026-05-08 07:07 | 32.81416 | -111.39793 | 13924 ft | 360 kts | 324° |
| 2026-05-08 07:07 | 32.83388 | -111.41644 | 13342 ft | 358 kts | 323° |
| 2026-05-08 07:07 | 32.85334 | -111.43469 | 13079 ft | 355 kts | 323° |
| 2026-05-08 07:08 | 32.87269 | -111.45286 | 12974 ft | 353 kts | 323° |
| 2026-05-08 07:08 | 32.89178 | -111.47080 | 12876 ft | 350 kts | 323° |
| 2026-05-08 07:08 | 32.91080 | -111.48822 | 12578 ft | 334 kts | 328° |
| 2026-05-08 07:08 | 32.93072 | -111.50033 | 12328 ft | 312 kts | 339° |
| 2026-05-08 07:09 | 32.95045 | -111.50944 | 12110 ft | 302 kts | 341° |
| 2026-05-08 07:09 | 32.97050 | -111.51818 | 11971 ft | 310 kts | 341° |
| 2026-05-08 07:09 | 32.99087 | -111.52710 | 11921 ft | 313 kts | 340° |
| 2026-05-08 07:09 | 33.01128 | -111.53665 | 11899 ft | 316 kts | 339° |
| 2026-05-08 07:10 | 33.03166 | -111.54660 | 11881 ft | 317 kts | 339° |
| 2026-05-08 07:10 | 33.05214 | -111.55654 | 11877 ft | 318 kts | 339° |
| 2026-05-08 07:10 | 33.07258 | -111.56647 | 11742 ft | 320 kts | 339° |
| 2026-05-08 07:10 | 33.09282 | -111.57654 | 11216 ft | 311 kts | 338° |
| 2026-05-08 07:11 | 33.11252 | -111.58628 | 10688 ft | 303 kts | 338° |
| 2026-05-08 07:11 | 33.13180 | -111.59582 | 10170 ft | 296 kts | 338° |
| 2026-05-08 07:11 | 33.15067 | -111.60516 | 9644 ft | 291 kts | 338° |
| 2026-05-08 07:11 | 33.16923 | -111.61433 | 9087 ft | 286 kts | 338° |
| 2026-05-08 07:12 | 33.18743 | -111.62333 | 8540 ft | 281 kts | 337° |
| 2026-05-08 07:12 | 33.20533 | -111.63214 | 8009 ft | 276 kts | 337° |
| 2026-05-08 07:12 | 33.22294 | -111.64102 | 7491 ft | 278 kts | 335° |
| 2026-05-08 07:12 | 33.24095 | -111.65087 | 6974 ft | 291 kts | 334° |
| 2026-05-08 07:13 | 33.25954 | -111.66166 | 6472 ft | 301 kts | 333° |
| 2026-05-08 07:13 | 33.27857 | -111.67284 | 5950 ft | 308 kts | 333° |
| 2026-05-08 07:13 | 33.29797 | -111.68417 | 5461 ft | 311 kts | 332° |
| 2026-05-08 07:13 | 33.31725 | -111.69545 | 5198 ft | 305 kts | 332° |
| 2026-05-08 07:14 | 33.33548 | -111.70607 | 5064 ft | 281 kts | 332° |
| 2026-05-08 07:14 | 33.35222 | -111.71584 | 4999 ft | 255 kts | 331° |
| 2026-05-08 07:14 | 33.36820 | -111.72516 | 4968 ft | 258 kts | 332° |
| 2026-05-08 07:14 | 33.38443 | -111.73466 | 4928 ft | 261 kts | 332° |
| 2026-05-08 07:15 | 33.40019 | -111.74533 | 4926 ft | 261 kts | 316° |
| 2026-05-08 07:15 | 33.41081 | -111.76288 | 4678 ft | 259 kts | 297° |
| 2026-05-08 07:15 | 33.41848 | -111.78195 | 4273 ft | 251 kts | 294° |
| 2026-05-08 07:15 | 33.42530 | -111.80084 | 4094 ft | 242 kts | 292° |
| 2026-05-08 07:16 | 33.42968 | -111.82003 | 4000 ft | 239 kts | 275° |
| 2026-05-08 07:16 | 33.42975 | -111.83978 | 3960 ft | 230 kts | 266° |
| 2026-05-08 07:16 | 33.42859 | -111.85812 | 3806 ft | 212 kts | 268° |
| 2026-05-08 07:16 | 33.42825 | -111.87465 | 3536 ft | 190 kts | 270° |
| 2026-05-08 07:17 | 33.42825 | -111.88943 | 3286 ft | 163 kts | 271° |
| 2026-05-08 07:17 | 33.42830 | -111.90137 | 3020 ft | 125 kts | 271° |
| 2026-05-08 07:17 | 33.42834 | -111.91136 | 2673 ft | 118 kts | 271° |
| 2026-05-08 07:17 | 33.42846 | -111.92153 | 2459 ft | 129 kts | 271° |
| 2026-05-08 07:18 | 33.42854 | -111.93247 | 2240 ft | 136 kts | 271° |
| 2026-05-08 07:18 | 33.42861 | -111.94393 | 2109 ft | 133 kts | 269° |
| 2026-05-08 07:18 | 33.42853 | -111.95514 | 1922 ft | 137 kts | 270° |
| 2026-05-08 07:18 | 33.42873 | -111.96672 | 1742 ft | 138 kts | 271° |
| 2026-05-08 07:19 | 33.42896 | -111.97806 | 1519 ft | 136 kts | 271° |
| 2026-05-08 07:19 | 33.42877 | -111.98958 | 1347 ft | 139 kts | 267° |
| 2026-05-08 07:19 | 33.42878 | -112.00089 | 1163 ft | 134 kts | 270° |
| 2026-05-08 07:19 | 33.42882 | -112.01071 | 1127 ft | 101 kts | 271° |
| 2026-05-08 07:20 | 33.42884 | -112.01750 | 1125 ft | 65 kts | 272° |
| 2026-05-08 07:20 | 33.42904 | -112.02091 | 1118 ft | 25 kts | 290° |
| 2026-05-08 07:20 | 33.42961 | -112.02150 | 1116 ft | 10 kts | 7° |
| 2026-05-08 07:20 | 33.42994 | -112.02099 | 1117 ft | 9 kts | 83° |
| 2026-05-08 07:21 | 33.42995 | -112.02003 | 1117 ft | 13 kts | 90° |
| 2026-05-08 07:21 | 33.42994 | -112.01894 | 1124 ft | 13 kts | 90° |
| 2026-05-08 07:21 | 33.42994 | -112.01780 | 1124 ft | 14 kts | 90° |
| 2026-05-08 07:21 | 33.42995 | -112.01656 | 1120 ft | 15 kts | 90° |
| 2026-05-08 07:22 | 33.42995 | -112.01527 | 1124 ft | 16 kts | 90° |
| 2026-05-08 07:22 | 33.42994 | -112.01397 | 1121 ft | 16 kts | 90° |
| 2026-05-08 07:22 | 33.42994 | -112.01260 | 1124 ft | 17 kts | 90° |
| 2026-05-08 07:22 | 33.42995 | -112.01114 | 1122 ft | 18 kts | 90° |
| 2026-05-08 07:23 | 33.42994 | -112.00967 | 1121 ft | 18 kts | 90° |
| 2026-05-08 07:23 | 33.42994 | -112.00815 | 1120 ft | 19 kts | 89° |
| 2026-05-08 07:23 | 33.42994 | -112.00656 | 1119 ft | 19 kts | 90° |
| 2026-05-08 07:23 | 33.42994 | -112.00525 | 1120 ft | 13 kts | 90° |
| 2026-05-08 07:24 | 33.42994 | -112.00464 | 1118 ft | 6 kts | 87° |
| 2026-05-08 07:24 | 33.42998 | -112.00358 | 1126 ft | 16 kts | 68° |
| 2026-05-08 07:24 | 33.43072 | -112.00320 | 1132 ft | 12 kts | 359° |
| 2026-05-08 07:24 | 33.43166 | -112.00307 | 1124 ft | 16 kts | 40° |
| 2026-05-08 07:25 | 33.43215 | -112.00190 | 1118 ft | 15 kts | 92° |
| 2026-05-08 07:25 | 33.43214 | -112.00051 | 1118 ft | 18 kts | 90° |
| 2026-05-08 07:25 | 33.43212 | -111.99745 | 1119 ft | 19 kts | 90° |
| 2026-05-08 07:26 | 33.43214 | -111.99582 | 1125 ft | 21 kts | 90° |
| 2026-05-08 07:26 | 33.43212 | -111.99401 | 1125 ft | 20 kts | 83° |
| 2026-05-08 07:26 | 33.43222 | -111.99253 | 1122 ft | 3 kts | 49° |
| 2026-05-08 07:26 | 33.43230 | -111.99248 | 1124 ft | 4 kts | 21° |
| 2026-05-08 07:27 | 33.43298 | -111.99245 | 1121 ft | 15 kts | 355° |
| 2026-05-08 07:27 | 33.43438 | -111.99231 | 1118 ft | 25 kts | 7° |
| 2026-05-08 07:27 | 33.43632 | -111.99226 | 1122 ft | 30 kts | 0° |
| 2026-05-08 07:27 | 33.43699 | -111.99229 | 1122 ft | 0 kts | 338° |
| 2026-05-08 07:28 | 33.43705 | -111.99240 | 1122 ft | 5 kts | 291° |
| 2026-05-08 07:28 | 33.43699 | -111.99286 | 1122 ft | 4 kts | 242° |
| 2026-05-08 07:28 | 33.43680 | -111.99315 | 1121 ft | 0 kts | 243° |
| 2026-05-08 07:29 | 33.43679 | -111.99331 | 1118 ft | 8 kts | 268° |
| 2026-05-08 07:29 | 33.43674 | -111.99352 | 1122 ft | 2 kts | 242° |
| 2026-05-08 07:29 | 33.43667 | -111.99366 | 1122 ft | 0 kts | 241° |
| 2026-05-08 07:30 | 33.43667 | -111.99368 | 1122 ft | 0 kts | 242° |